createdAt,value
2022-09-07T00:01:00.477Z,96.70
2022-09-07T00:03:27.580Z,96.70
2022-09-07T00:05:54.758Z,97.10
2022-09-07T00:08:24.949Z,97.10
2022-09-07T00:10:59.625Z,97.20
2022-09-07T00:13:30.793Z,96.90
2022-09-07T00:15:57.847Z,97.30
2022-09-07T00:18:24.922Z,97.20
2022-09-07T00:21:02.617Z,97.10
2022-09-07T00:23:30.177Z,97.10
2022-09-07T00:26:08.399Z,97.10
2022-09-07T00:28:37.573Z,97.20
2022-09-07T00:31:10.236Z,97.30
2022-09-07T00:33:37.175Z,97.20
2022-09-07T00:36:04.160Z,97.40
2022-09-07T00:38:31.245Z,97.50
2022-09-07T00:41:01.193Z,97.60
2022-09-07T00:43:49.476Z,97.80
2022-09-07T00:46:22.011Z,97.70
2022-09-07T00:48:53.502Z,97.80
2022-09-07T00:51:37.415Z,97.70
2022-09-07T00:54:12.578Z,97.80
2022-09-07T00:56:41.441Z,97.80
2022-09-07T00:59:11.793Z,98.00
2022-09-07T01:01:41.478Z,97.90
2022-09-07T01:04:08.960Z,98.10
2022-09-07T01:06:36.684Z,98.20
2022-09-07T01:09:11.840Z,98.30
2022-09-07T01:11:38.865Z,98.40
2022-09-07T01:14:07.265Z,98.40
2022-09-07T01:16:54.407Z,98.60
2022-09-07T01:19:27.537Z,98.70
2022-09-07T01:22:33.176Z,98.70
2022-09-07T01:25:09.424Z,98.90
2022-09-07T01:27:58.203Z,99.00
2022-09-07T01:30:25.213Z,98.90
2022-09-07T01:33:05.400Z,98.80
2022-09-07T01:36:13.243Z,99.10
2022-09-07T01:38:48.836Z,99.10
2022-09-07T01:41:48.131Z,99.20
2022-09-07T01:44:19.667Z,99.40
2022-09-07T01:46:53.951Z,99.40
2022-09-07T01:49:37.437Z,99.60
2022-09-07T01:52:18.659Z,99.40
2022-09-07T01:54:55.241Z,99.50
2022-09-07T01:57:28.693Z,99.50
2022-09-07T02:00:09.968Z,99.70
2022-09-07T02:02:43.258Z,99.50
2022-09-07T02:05:15.727Z,99.60
2022-09-07T02:08:01.173Z,99.70
2022-09-07T02:10:32.793Z,99.60
2022-09-07T02:13:24.754Z,99.90
2022-09-07T02:15:58.993Z,99.90
2022-09-07T02:18:29.126Z,99.90
2022-09-07T02:20:57.704Z,99.90
2022-09-07T02:23:26.656Z,99.90
2022-09-07T02:26:00.269Z,99.90
2022-09-07T02:28:29.957Z,99.90
2022-09-07T02:30:56.957Z,99.90
2022-09-07T02:33:23.881Z,99.90
2022-09-07T02:35:53.210Z,99.90
2022-09-07T02:38:22.603Z,99.90
2022-09-07T02:40:56.109Z,99.90
2022-09-07T02:43:25.556Z,99.90
2022-09-07T02:46:43.609Z,99.90
2022-09-07T02:49:13.509Z,99.90
2022-09-07T02:51:51.392Z,99.90
2022-09-07T02:54:33.525Z,99.90
2022-09-07T02:57:15.588Z,99.90
2022-09-07T03:00:06.288Z,99.90
2022-09-07T03:03:07.044Z,99.90
2022-09-07T03:05:49.682Z,99.90
2022-09-07T03:08:22.519Z,99.90
2022-09-07T03:10:49.444Z,99.90
2022-09-07T03:13:22.793Z,99.90
2022-09-07T03:15:53.606Z,99.90
2022-09-07T03:18:23.007Z,99.90
2022-09-07T03:20:49.792Z,99.90
2022-09-07T03:23:16.580Z,99.90
2022-09-07T03:25:45.950Z,99.90
2022-09-07T03:28:16.101Z,99.90
2022-09-07T03:30:47.166Z,99.90
2022-09-07T03:33:15.957Z,99.90
2022-09-07T03:35:46.548Z,99.90
2022-09-07T03:38:13.359Z,99.90
2022-09-07T03:40:40.314Z,99.90
2022-09-07T03:43:07.086Z,99.90
2022-09-07T03:45:33.896Z,99.90
2022-09-07T03:48:00.690Z,99.90
2022-09-07T03:50:29.905Z,99.90
2022-09-07T03:52:56.874Z,99.90
2022-09-07T03:55:23.621Z,99.90
2022-09-07T03:57:50.411Z,99.90
2022-09-07T04:00:17.886Z,99.90
2022-09-07T04:02:44.730Z,99.90
2022-09-07T04:05:13.962Z,99.90
2022-09-07T04:07:40.729Z,99.90
2022-09-07T04:10:08.415Z,99.90
2022-09-07T04:12:37.379Z,99.90
2022-09-07T04:15:04.352Z,99.90
2022-09-07T04:17:33.343Z,99.90
2022-09-07T04:20:00.123Z,99.90
2022-09-07T04:22:26.867Z,99.90
2022-09-07T04:24:54.015Z,99.90
2022-09-07T04:27:20.810Z,99.90
2022-09-07T04:29:49.958Z,99.90
2022-09-07T04:32:16.944Z,99.90
2022-09-07T04:34:46.129Z,99.90
2022-09-07T04:37:12.887Z,99.90
2022-09-07T04:39:42.200Z,99.90
2022-09-07T04:42:09.209Z,99.90
2022-09-07T04:44:38.140Z,99.90
2022-09-07T04:47:07.404Z,99.90
2022-09-07T04:49:34.200Z,99.90
2022-09-07T04:52:01.377Z,99.90
2022-09-07T04:54:31.034Z,99.90
2022-09-07T04:57:00.299Z,99.90
2022-09-07T04:59:27.111Z,99.90
2022-09-07T05:01:53.887Z,99.90
2022-09-07T05:04:20.664Z,99.90
2022-09-07T05:06:47.615Z,99.90
2022-09-07T05:09:16.552Z,99.90
2022-09-07T05:11:43.487Z,99.90
2022-09-07T05:14:12.542Z,99.90
2022-09-07T05:16:41.464Z,99.90
2022-09-07T05:19:13.269Z,99.90
2022-09-07T05:21:40.007Z,99.90
2022-09-07T05:24:09.425Z,99.90
2022-09-07T05:26:36.620Z,99.90
2022-09-07T05:31:51.327Z,99.90
2022-09-07T05:34:33.494Z,99.90
2022-09-07T05:37:03.008Z,99.90
2022-09-07T05:39:29.923Z,99.90
2022-09-07T05:41:58.877Z,99.90
2022-09-07T05:47:07.734Z,99.20
2022-09-07T05:49:34.667Z,98.10
2022-09-07T05:52:01.404Z,97.60
2022-09-07T05:54:30.717Z,97.70
2022-09-07T05:57:03.403Z,97.30
2022-09-07T05:59:30.217Z,97.70
2022-09-07T06:02:01.721Z,98.10
2022-09-07T06:04:28.512Z,98.30
2022-09-07T06:12:33.919Z,98.80
2022-09-07T06:15:01.631Z,98.40
2022-09-07T06:17:31.718Z,98.70
2022-09-07T06:19:58.493Z,98.80
2022-09-07T06:22:30.989Z,98.70
2022-09-07T06:24:58.169Z,98.60
2022-09-07T06:27:25.430Z,98.40
2022-09-07T06:29:54.758Z,98.80
2022-09-07T06:35:09.004Z,98.10
2022-09-07T06:37:37.973Z,98.00
2022-09-07T06:40:05.272Z,98.10
2022-09-07T06:42:34.607Z,97.80
2022-09-07T06:45:01.672Z,97.70
2022-09-07T06:47:30.662Z,97.60
2022-09-07T06:49:57.461Z,97.60
2022-09-07T06:52:24.253Z,97.30
2022-09-07T06:54:58.838Z,97.70
2022-09-07T06:57:28.113Z,97.30
2022-09-07T06:59:57.137Z,97.10
2022-09-07T07:02:26.150Z,97.10
2022-09-07T07:04:52.909Z,97.00
2022-09-07T07:07:20.113Z,97.20
2022-09-07T07:09:49.419Z,96.70
2022-09-07T07:14:44.958Z,96.90
2022-09-07T07:17:14.259Z,96.70
2022-09-07T07:19:41.096Z,96.20
2022-09-07T07:22:35.596Z,96.70
2022-09-07T07:24:56.771Z,96.90
2022-09-07T07:27:23.781Z,96.70
2022-09-07T07:29:50.592Z,96.10
2022-09-07T07:32:19.691Z,95.90
2022-09-07T07:34:50.975Z,95.60
2022-09-07T07:37:17.695Z,94.90
2022-09-07T07:42:31.165Z,94.80
2022-09-07T07:47:52.891Z,94.80
2022-09-07T07:50:35.102Z,94.40
2022-09-07T07:55:51.253Z,93.80
2022-09-07T07:58:20.921Z,93.90
2022-09-07T08:00:56.171Z,93.90
2022-09-07T08:03:26.151Z,93.60
2022-09-07T08:05:55.549Z,92.80
2022-09-07T08:08:24.997Z,93.10
2022-09-07T08:10:51.875Z,93.00
2022-09-07T08:13:21.695Z,92.40
2022-09-07T08:15:50.807Z,92.10
2022-09-07T08:18:17.580Z,91.60
2022-09-07T08:20:44.441Z,91.80
2022-09-07T08:23:11.629Z,91.50
2022-09-07T08:25:38.421Z,91.70
2022-09-07T08:28:05.295Z,92.00
2022-09-07T08:30:31.997Z,92.20
2022-09-07T08:32:58.760Z,91.90
2022-09-07T08:35:25.497Z,92.00
2022-09-07T08:37:52.188Z,92.40
2022-09-07T08:40:19.134Z,92.30
2022-09-07T08:42:57.485Z,92.70
2022-09-07T08:45:34.186Z,92.50
2022-09-07T08:48:01.089Z,92.80
2022-09-07T08:50:51.562Z,92.40
2022-09-07T08:53:21.262Z,92.00
2022-09-07T08:56:11.897Z,90.80
2022-09-07T08:58:50.135Z,90.40
2022-09-07T09:01:37.077Z,90.60
2022-09-07T09:04:17.292Z,91.10
2022-09-07T09:06:48.172Z,90.40
2022-09-07T09:09:30.349Z,90.40
2022-09-07T09:12:02.703Z,90.00
2022-09-07T09:14:53.150Z,89.80
2022-09-07T09:17:30.815Z,89.80
2022-09-07T09:20:08.179Z,89.50
2022-09-07T09:22:37.074Z,89.40
2022-09-07T09:25:21.271Z,90.50
2022-09-07T09:27:50.574Z,90.40
2022-09-07T09:30:20.149Z,89.20
2022-09-07T09:32:48.499Z,88.80
2022-09-07T09:35:16.581Z,86.70
2022-09-07T09:37:43.599Z,87.30
2022-09-07T09:40:35.628Z,88.50
2022-09-07T09:43:18.124Z,89.60
2022-09-07T09:48:39.988Z,86.70
2022-09-07T09:54:06.124Z,87.40
2022-09-07T09:56:40.764Z,87.50
2022-09-07T10:05:26.576Z,87.90
2022-09-07T10:07:53.740Z,87.00
2022-09-07T10:10:20.561Z,86.80
2022-09-07T10:12:47.409Z,86.40
2022-09-07T10:15:32.883Z,86.80
2022-09-07T10:18:02.005Z,86.30
2022-09-07T10:20:38.032Z,86.80
2022-09-07T10:23:10.321Z,86.20
2022-09-07T10:25:41.582Z,86.50
2022-09-07T10:28:14.360Z,84.90
2022-09-07T10:31:01.372Z,85.60
2022-09-07T10:33:36.975Z,86.00
2022-09-07T10:36:21.264Z,83.80
2022-09-07T10:38:54.876Z,82.70
2022-09-07T10:41:22.851Z,83.30
2022-09-07T10:43:54.270Z,82.30
2022-09-07T10:49:15.698Z,83.40
2022-09-07T10:52:19.954Z,83.10
2022-09-07T10:54:56.982Z,83.20
2022-09-07T10:58:02.763Z,81.60
2022-09-07T11:00:33.500Z,82.90
2022-09-07T11:03:26.683Z,82.50
2022-09-07T11:06:01.557Z,81.40
2022-09-07T11:14:26.764Z,78.20
2022-09-07T11:16:59.374Z,76.60
2022-09-07T11:19:35.865Z,76.40
2022-09-07T11:22:12.210Z,77.20
2022-09-07T11:25:29.068Z,77.20
2022-09-07T11:27:45.835Z,76.40
2022-09-07T11:30:21.894Z,77.10
2022-09-07T11:33:25.080Z,77.20
2022-09-07T11:35:53.423Z,78.50
2022-09-07T11:38:28.542Z,79.40
2022-09-07T11:41:34.300Z,80.00
2022-09-07T11:44:17.359Z,79.90
2022-09-07T11:46:48.559Z,77.00
2022-09-07T11:49:22.712Z,76.90
2022-09-07T11:51:57.932Z,74.90
2022-09-07T11:54:29.849Z,72.90
2022-09-07T11:57:07.266Z,72.60
2022-09-07T12:00:12.972Z,74.20
2022-09-07T12:03:00.599Z,75.30
2022-09-07T12:05:41.545Z,76.40
2022-09-07T12:08:33.664Z,75.00
2022-09-07T12:11:23.421Z,75.80
2022-09-07T12:13:53.285Z,73.40
2022-09-07T12:16:31.828Z,74.20
2022-09-07T12:19:15.753Z,75.10
2022-09-07T12:21:52.413Z,75.10
2022-09-07T12:24:34.043Z,76.80
2022-09-07T12:27:04.015Z,75.80
2022-09-07T12:29:30.824Z,77.50
2022-09-07T12:32:07.406Z,78.10
2022-09-07T12:34:54.439Z,74.60
2022-09-07T12:37:27.308Z,73.40
2022-09-07T12:40:32.101Z,73.20
2022-09-07T12:43:13.884Z,73.10
2022-09-07T12:45:40.564Z,72.00
2022-09-07T12:48:16.023Z,73.60
2022-09-07T12:51:59.365Z,73.40
2022-09-07T12:54:21.457Z,73.10
2022-09-07T12:57:30.248Z,75.10
2022-09-07T13:00:17.836Z,73.60
2022-09-07T13:09:16.700Z,72.40
2022-09-07T13:11:43.870Z,71.20
2022-09-07T13:14:13.858Z,70.00
2022-09-07T13:19:49.409Z,71.10
2022-09-07T13:22:36.844Z,70.00
2022-09-07T13:25:27.145Z,69.90
2022-09-07T13:28:13.749Z,71.00
2022-09-07T13:31:07.903Z,70.20
2022-09-07T13:33:34.641Z,70.20
2022-09-07T13:36:05.134Z,71.80
2022-09-07T13:38:32.777Z,71.00
2022-09-07T13:41:07.475Z,72.00
2022-09-07T13:43:34.192Z,70.70
2022-09-07T13:46:04.069Z,70.30
2022-09-07T13:48:51.193Z,69.10
2022-09-07T13:51:45.639Z,69.60
2022-09-07T13:54:41.392Z,69.80
2022-09-07T13:57:34.015Z,70.20
2022-09-07T14:00:03.927Z,71.90
2022-09-07T14:02:34.216Z,71.00
2022-09-07T14:05:00.932Z,70.70
2022-09-07T14:07:29.446Z,71.50
2022-09-07T14:10:15.078Z,70.70
2022-09-07T14:12:43.893Z,70.30
2022-09-07T14:15:29.512Z,70.20
2022-09-07T14:18:07.268Z,70.80
2022-09-07T14:20:41.136Z,70.40
2022-09-07T14:23:30.453Z,70.60
2022-09-07T14:26:16.576Z,71.00
2022-09-07T14:28:46.896Z,70.80
2022-09-07T14:31:17.683Z,70.90
2022-09-07T14:33:55.606Z,70.40
2022-09-07T14:36:45.864Z,71.70
2022-09-07T14:39:16.189Z,72.40
2022-09-07T14:41:43.384Z,71.40
2022-09-07T14:44:31.644Z,71.20
2022-09-07T14:47:02.036Z,72.10
2022-09-07T14:49:31.442Z,73.20
2022-09-07T14:52:00.688Z,72.90
2022-09-07T14:54:34.330Z,72.70
2022-09-07T14:57:11.623Z,72.50
2022-09-07T14:59:43.420Z,72.60
2022-09-07T15:02:19.628Z,72.30
2022-09-07T15:04:46.998Z,72.80
2022-09-07T15:07:38.524Z,73.00
2022-09-07T15:10:20.589Z,72.90
2022-09-07T15:12:50.602Z,71.90
2022-09-07T15:15:26.288Z,71.50
2022-09-07T15:17:54.919Z,71.60
2022-09-07T15:20:34.996Z,72.30
2022-09-07T15:23:03.976Z,71.10
2022-09-07T15:25:31.391Z,71.10
2022-09-07T15:27:58.190Z,71.80
2022-09-07T15:30:26.174Z,72.30
2022-09-07T15:32:57.804Z,72.30
2022-09-07T15:35:24.765Z,73.00
2022-09-07T15:38:59.502Z,72.70
2022-09-07T15:41:23.866Z,73.90
2022-09-07T15:44:19.478Z,72.40
2022-09-07T15:49:54.598Z,72.90
2022-09-07T15:55:45.160Z,73.40
2022-09-07T16:04:13.593Z,73.20
2022-09-07T16:06:41.144Z,71.80
2022-09-07T16:09:08.353Z,71.50
2022-09-07T16:11:38.100Z,71.60
2022-09-07T16:14:11.802Z,72.00
2022-09-07T16:19:30.441Z,72.00
2022-09-07T16:21:58.156Z,72.30
2022-09-07T16:24:24.964Z,72.90
2022-09-07T16:26:51.672Z,73.10
2022-09-07T16:29:21.165Z,72.20
2022-09-07T16:34:34.815Z,72.10
2022-09-07T16:37:01.564Z,72.60
2022-09-07T16:39:33.654Z,72.40
2022-09-07T16:42:00.472Z,74.20
2022-09-07T16:44:27.225Z,72.70
2022-09-07T16:46:56.424Z,71.90
2022-09-07T16:49:23.146Z,73.60
2022-09-07T16:51:50.127Z,73.60
2022-09-07T16:54:17.114Z,73.80
2022-09-07T16:56:52.617Z,72.80
2022-09-07T16:59:26.278Z,73.40
2022-09-07T17:01:56.540Z,74.40
2022-09-07T17:04:25.553Z,74.50
2022-09-07T17:06:54.457Z,74.80
2022-09-07T17:09:26.150Z,75.20
2022-09-07T17:11:52.906Z,75.20
2022-09-07T17:14:19.838Z,75.20
2022-09-07T17:16:49.023Z,75.20
2022-09-07T17:19:33.479Z,75.80
2022-09-07T17:22:00.748Z,75.80
2022-09-07T17:24:32.245Z,76.10
2022-09-07T17:26:59.618Z,76.10
2022-09-07T17:29:30.586Z,76.10
2022-09-07T17:34:46.180Z,76.30
2022-09-07T17:37:12.872Z,77.70
2022-09-07T17:39:42.133Z,76.30
2022-09-07T17:42:09.860Z,77.30
2022-09-07T17:44:38.483Z,77.00
2022-09-07T17:47:05.716Z,76.70
2022-09-07T17:49:32.464Z,77.60
2022-09-07T17:52:01.739Z,76.70
2022-09-07T17:54:28.650Z,77.90
2022-09-07T17:56:55.375Z,77.90
2022-09-07T18:02:12.027Z,77.90
2022-09-07T18:04:41.014Z,77.50
2022-09-07T18:07:07.870Z,78.70
2022-09-07T18:09:35.145Z,79.20
2022-09-07T18:12:02.079Z,78.70
2022-09-07T18:14:30.133Z,78.90
2022-09-07T18:16:57.012Z,79.60
2022-09-07T18:19:24.380Z,80.40
2022-09-07T18:21:52.073Z,80.30
2022-09-07T18:24:23.128Z,79.70
2022-09-07T18:26:54.252Z,79.40
2022-09-07T18:29:29.219Z,79.00
2022-09-07T18:31:56.806Z,79.40
2022-09-07T18:34:23.744Z,80.00
2022-09-07T18:36:52.771Z,80.00
2022-09-07T18:39:21.700Z,80.50
2022-09-07T18:41:48.396Z,80.40
2022-09-07T18:47:01.991Z,81.60
2022-09-07T18:49:31.183Z,81.80
2022-09-07T18:54:44.590Z,82.70
2022-09-07T18:57:15.309Z,83.20
2022-09-07T18:59:44.753Z,83.10
2022-09-07T19:02:11.618Z,83.80
2022-09-07T19:07:30.164Z,84.20
2022-09-07T19:09:57.084Z,84.70
2022-09-07T19:12:29.683Z,84.70
2022-09-07T19:14:56.831Z,84.70
2022-09-07T19:17:24.723Z,84.80
2022-09-07T19:19:53.938Z,85.10
2022-09-07T19:22:20.710Z,85.40
2022-09-07T19:24:47.438Z,85.90
2022-09-07T19:27:17.069Z,85.30
2022-09-07T19:29:43.766Z,85.60
2022-09-07T19:32:13.059Z,86.20
2022-09-07T19:34:43.415Z,86.30
2022-09-07T19:37:13.703Z,86.00
2022-09-07T19:39:40.483Z,86.60
2022-09-07T19:42:12.402Z,86.50
2022-09-07T19:44:39.358Z,86.10
2022-09-07T19:47:08.703Z,86.90
2022-09-07T19:49:37.713Z,86.80
2022-09-07T19:52:04.510Z,86.50
2022-09-07T19:54:31.410Z,86.60
2022-09-07T19:56:58.136Z,87.20
2022-09-07T19:59:24.932Z,87.00
2022-09-07T20:01:53.794Z,87.70
2022-09-07T20:04:23.365Z,87.40
2022-09-07T20:06:50.755Z,87.20
2022-09-07T20:09:20.572Z,88.20
2022-09-07T20:11:47.911Z,88.00
2022-09-07T20:14:17.782Z,88.00
2022-09-07T20:16:44.558Z,88.70
2022-09-07T20:19:19.529Z,88.90
2022-09-07T20:21:49.198Z,88.40
2022-09-07T20:24:22.099Z,88.40
2022-09-07T20:26:49.106Z,88.60
2022-09-07T20:29:33.270Z,88.80
2022-09-07T20:32:02.803Z,89.20
2022-09-07T20:34:32.307Z,89.00
2022-09-07T20:36:59.088Z,89.00
2022-09-07T20:39:28.441Z,89.20
2022-09-07T20:41:55.169Z,89.10
2022-09-07T20:44:21.910Z,89.60
2022-09-07T20:46:51.052Z,89.40
2022-09-07T20:49:17.902Z,89.90
2022-09-07T20:51:44.675Z,90.00
2022-09-07T20:54:13.645Z,89.90
2022-09-07T20:56:42.856Z,90.00
2022-09-07T20:59:09.812Z,89.90
2022-09-07T21:01:36.697Z,90.00
2022-09-07T21:04:06.359Z,90.10
2022-09-07T21:06:35.485Z,90.10
2022-09-07T21:09:02.238Z,90.20
2022-09-07T21:11:33.593Z,90.20
2022-09-07T21:14:01.060Z,90.30
2022-09-07T21:16:28.110Z,90.40
2022-09-07T21:18:56.312Z,90.20
2022-09-07T21:21:23.525Z,90.30
2022-09-07T21:23:56.812Z,90.40
2022-09-07T21:26:23.712Z,90.50
2022-09-07T21:28:57.110Z,90.50
2022-09-07T21:31:23.923Z,90.60
2022-09-07T21:33:54.120Z,90.50
2022-09-07T21:36:20.822Z,90.70
2022-09-07T21:38:47.580Z,90.70
2022-09-07T21:41:15.942Z,90.80
2022-09-07T21:43:42.668Z,90.70
2022-09-07T21:46:13.134Z,90.70
2022-09-07T21:48:39.990Z,90.90
2022-09-07T21:51:06.779Z,90.80
2022-09-07T21:53:36.022Z,91.00
2022-09-07T21:56:07.358Z,91.10
2022-09-07T21:58:34.053Z,91.00
2022-09-07T22:01:05.248Z,91.40
2022-09-07T22:03:34.437Z,91.00
2022-09-07T22:06:04.346Z,91.20
2022-09-07T22:08:31.297Z,91.50
2022-09-07T22:11:07.088Z,91.30
2022-09-07T22:13:36.093Z,91.40
2022-09-07T22:16:03.636Z,91.40
2022-09-07T22:18:33.033Z,91.50
2022-09-07T22:21:09.959Z,91.60
2022-09-07T22:23:41.840Z,91.50
2022-09-07T22:26:08.705Z,91.60
2022-09-07T22:28:35.632Z,91.80
2022-09-07T22:31:09.196Z,91.90
2022-09-07T22:33:38.049Z,92.00
2022-09-07T22:36:32.383Z,92.20
2022-09-07T22:39:02.299Z,92.20
2022-09-07T22:41:30.965Z,92.40
2022-09-07T22:43:57.758Z,92.40
2022-09-07T22:46:26.191Z,92.40
2022-09-07T22:48:56.605Z,92.60
2022-09-07T22:51:25.316Z,92.60
2022-09-07T22:53:52.976Z,93.00
2022-09-07T22:56:24.180Z,92.70
2022-09-07T22:58:52.822Z,92.60
2022-09-07T23:01:19.585Z,92.50
2022-09-07T23:03:49.222Z,92.70
2022-09-07T23:06:28.900Z,92.50
2022-09-07T23:08:58.996Z,92.80
2022-09-07T23:11:25.933Z,92.70
2022-09-07T23:13:58.886Z,93.00
2022-09-07T23:16:29.027Z,92.90
2022-09-07T23:18:58.817Z,93.20
2022-09-07T23:21:26.195Z,93.00
2022-09-07T23:23:53.821Z,92.90
2022-09-07T23:26:21.182Z,93.00
2022-09-07T23:28:59.223Z,93.00
2022-09-07T23:31:28.913Z,93.20
2022-09-07T23:34:01.549Z,93.40
2022-09-07T23:36:30.564Z,93.80
2022-09-07T23:38:58.044Z,93.40
2022-09-07T23:41:27.214Z,93.50
2022-09-07T23:43:54.145Z,93.60
2022-09-07T23:46:21.062Z,93.60
2022-09-07T23:48:48.226Z,93.50
2022-09-07T23:51:15.665Z,93.50
2022-09-07T23:53:44.443Z,94.00
2022-09-07T23:56:12.143Z,94.10
2022-09-07T23:58:43.707Z,94.00
